Weather at Karup Airport

Public forecast

Using degrees Celsius for public forecast. Weather courtesy of forecast.io.

Current aviation weather report (METAR) for Karup Airport

Retrieved 2021/01/28 00:20 UTC (38 minutes ago):

EKKA 280020Z AUTO 32007KT 9999 BKN024/// M01/M03 Q1006 R27L/690195

Aviation forecast (TAF) for Karup Airport

Retrieved 2021-01-28 00:30 UTC (28 minutes ago):

TAF EKKA 272308Z 2800/2824 33005KT 9999 SCT020